Terminal Aerodrome Forecast
Issued by NWS Flagstaff, AZ

Home | Current Version | Previous Version | Text Only | Print | Product List | Glossary On
Versions: 1 2 3 4 5 6 7 8 9 10 11 12 13 14
000
FTUS45 KFGZ 301120
TAFFLG
TAF
KFLG 301120Z 3012/3112 VRB05KT P6SM FEW080
     FM301700 22009G17KT P6SM VCTS SCT060CB
      TEMPO 3019/3023 VRB15G25KT 4SM TSRA BKN050CB OVC080
     FM310200 VRB03KT P6SM SCT070=

USA.gov is the U.S. government's official web portal to all federal, state and local government web resources and services.